sim
Sign-in with your pilot id or email,
or register
Callsign
Passwort

Schedule Details

Flight Number: DLH2725 (1)
Departure: Berlin Tegel Airport (EDDT) at 18:20
Arrival: Munich Airport (EDDM) at 19:30
Route: Lufthansa Passenger Schedule. Enter filed route here before submitting Pirep.

Weather Information
Getting current METAR information for EDDT 221920Z 10001KT CAVOK 18/11 Q1007 NOSIG
Getting current METAR information for EDDM 221920Z VRB02KT CAVOK 17/15 Q1010 NOSIG

Schedule Frequency

Route Map